Terminal Aerodrome Forecast
Issued by NWS Detroit/Pontiac, MI

Home | Current Version | Previous Version | Text Only | Print | Product List | Glossary On
Versions: 1 2 3 4 5 6 7 8 9 10 11 12 13 14 15 16 17 18 19 20 21 22
003
FTUS43 KDTX 180247 AAA
TAFFNT
TAF AMD
KFNT 180247Z 1803/1824 27005KT 2SM -SN BR BKN018 OVC024
     FM180500 27009KT P6SM SCT012 OVC022
     FM181600 20010KT P6SM SCT028
     FM182000 17010KT P6SM SCT250=

USA.gov is the U.S. government's official web portal to all federal, state and local government web resources and services.